createdAt,value
2023-05-09T00:00:51.745Z,4.38
2023-05-09T00:03:18.540Z,3.42
2023-05-09T00:05:45.496Z,5.18
2023-05-09T00:08:12.184Z,3.10
2023-05-09T00:10:38.985Z,5.60
2023-05-09T00:13:05.699Z,3.55
2023-05-09T00:15:32.476Z,2.92
2023-05-09T00:18:00.663Z,3.70
2023-05-09T00:20:27.331Z,3.00
2023-05-09T00:22:54.024Z,4.75
2023-05-09T00:25:20.766Z,3.58
2023-05-09T00:27:47.498Z,4.28
2023-05-09T00:30:14.294Z,5.03
2023-05-09T00:32:41.016Z,5.13
2023-05-09T00:35:09.706Z,3.72
2023-05-09T00:37:36.347Z,3.35
2023-05-09T00:40:04.261Z,4.78
2023-05-09T00:42:30.976Z,4.82
2023-05-09T00:44:57.870Z,3.22
2023-05-09T00:47:24.701Z,3.50
2023-05-09T00:49:51.374Z,3.28
2023-05-09T00:52:19.410Z,3.10
2023-05-09T00:54:46.196Z,4.72
2023-05-09T00:57:12.916Z,3.30
2023-05-09T00:59:39.638Z,5.38
2023-05-09T01:02:06.352Z,2.55
2023-05-09T01:04:33.184Z,2.97
2023-05-09T01:07:04.423Z,3.75
2023-05-09T01:09:37.578Z,2.95
2023-05-09T01:12:09.877Z,3.88
2023-05-09T01:14:39.365Z,4.80
2023-05-09T01:17:09.497Z,4.95
2023-05-09T01:19:46.049Z,5.00
2023-05-09T01:22:12.823Z,3.58
2023-05-09T01:25:10.049Z,3.83
2023-05-09T01:27:40.380Z,3.22
2023-05-09T01:30:09.252Z,4.43
2023-05-09T01:32:36.128Z,3.75
2023-05-09T01:35:03.150Z,4.15
2023-05-09T01:37:30.500Z,5.30
2023-05-09T01:39:58.570Z,6.88
2023-05-09T01:42:25.296Z,4.55
2023-05-09T01:44:51.956Z,3.25
2023-05-09T01:47:20.057Z,3.22
2023-05-09T01:49:46.767Z,4.65
2023-05-09T01:52:14.983Z,6.65
2023-05-09T01:54:41.759Z,3.78
2023-05-09T01:57:08.442Z,4.13
2023-05-09T01:59:35.105Z,4.43
2023-05-09T02:02:02.423Z,3.72
2023-05-09T02:04:30.654Z,2.42
2023-05-09T02:06:57.318Z,3.75
2023-05-09T02:09:24.048Z,6.78
2023-05-09T02:11:50.732Z,6.18
2023-05-09T02:14:17.541Z,3.00
2023-05-09T02:16:44.409Z,4.45
2023-05-09T02:19:11.183Z,3.35
2023-05-09T02:21:39.311Z,2.45
2023-05-09T02:24:06.641Z,4.57
2023-05-09T02:26:33.346Z,4.03
2023-05-09T02:29:00.106Z,3.78
2023-05-09T02:31:26.904Z,4.68
2023-05-09T02:33:53.638Z,5.05
2023-05-09T02:36:20.380Z,4.38
2023-05-09T02:38:48.476Z,3.45
2023-05-09T02:41:15.354Z,4.43
2023-05-09T02:43:42.069Z,4.68
2023-05-09T02:46:08.940Z,6.38
2023-05-09T02:48:35.669Z,3.85
2023-05-09T02:51:02.382Z,4.93
2023-05-09T02:53:29.093Z,4.80
2023-05-09T02:55:57.302Z,5.88
2023-05-09T02:58:23.991Z,3.83
2023-05-09T03:00:50.757Z,4.57
2023-05-09T03:03:17.534Z,4.22
2023-05-09T03:05:44.270Z,12.20
2023-05-09T03:08:10.987Z,6.15
2023-05-09T03:10:37.704Z,4.55
2023-05-09T03:13:05.792Z,6.38
2023-05-09T03:15:32.529Z,4.93
2023-05-09T03:17:59.295Z,5.03
2023-05-09T03:20:26.268Z,4.57
2023-05-09T03:22:53.079Z,4.32
2023-05-09T03:25:19.903Z,5.57
2023-05-09T03:27:46.643Z,4.03
2023-05-09T03:30:15.299Z,3.80
2023-05-09T03:32:42.027Z,6.03
2023-05-09T03:35:08.898Z,4.28
2023-05-09T03:37:35.592Z,3.53
2023-05-09T03:40:02.274Z,4.93
2023-05-09T03:42:28.971Z,8.88
2023-05-09T03:44:55.694Z,5.80
2023-05-09T03:47:23.849Z,6.00
2023-05-09T03:49:50.565Z,6.90
2023-05-09T03:52:17.304Z,4.53
2023-05-09T03:54:44.032Z,5.05
2023-05-09T03:57:10.993Z,4.68
2023-05-09T03:59:37.786Z,4.55
2023-05-09T04:02:04.543Z,3.85
2023-05-09T04:04:32.656Z,5.00
2023-05-09T04:06:59.424Z,5.15
2023-05-09T04:09:26.225Z,4.85
2023-05-09T04:11:52.919Z,8.25
2023-05-09T04:14:19.670Z,7.78
2023-05-09T04:16:46.404Z,4.00
2023-05-09T04:19:13.057Z,7.28
2023-05-09T04:21:41.300Z,8.18
2023-05-09T04:24:08.237Z,5.00
2023-05-09T04:26:35.422Z,5.93
2023-05-09T04:29:02.171Z,6.65
2023-05-09T04:31:28.914Z,7.25
2023-05-09T04:33:55.639Z,5.60
2023-05-09T04:36:22.406Z,4.35
2023-05-09T04:38:50.494Z,3.25
2023-05-09T04:41:17.174Z,6.50
2023-05-09T04:43:43.866Z,3.55
2023-05-09T04:46:10.612Z,5.60
2023-05-09T04:48:37.353Z,5.25
2023-05-09T04:51:04.081Z,3.03
2023-05-09T04:53:30.780Z,6.00
2023-05-09T04:55:58.872Z,5.72
2023-05-09T04:58:25.592Z,4.82
2023-05-09T05:00:52.261Z,4.28
2023-05-09T05:03:18.951Z,2.90
2023-05-09T05:05:45.732Z,5.70
2023-05-09T05:08:12.439Z,3.90
2023-05-09T05:10:39.114Z,2.83
2023-05-09T05:13:07.323Z,6.03
2023-05-09T05:15:34.059Z,2.95
2023-05-09T05:18:00.803Z,4.30
2023-05-09T05:20:27.607Z,2.17
2023-05-09T05:22:54.317Z,4.75
2023-05-09T05:25:21.044Z,2.38
2023-05-09T05:27:47.828Z,3.13
2023-05-09T05:30:16.238Z,2.47
2023-05-09T05:32:42.918Z,3.25
2023-05-09T05:35:09.966Z,5.20
2023-05-09T05:37:36.724Z,4.28
2023-05-09T05:40:03.781Z,3.20
2023-05-09T05:42:30.529Z,3.15
2023-05-09T05:44:57.253Z,2.05
2023-05-09T05:47:25.317Z,3.15
2023-05-09T05:49:52.627Z,3.40
2023-05-09T05:52:19.311Z,1.85
2023-05-09T05:54:46.010Z,3.22
2023-05-09T05:57:12.780Z,2.33
2023-05-09T05:59:39.492Z,1.48
2023-05-09T06:02:06.218Z,1.75
2023-05-09T06:04:34.373Z,5.68
2023-05-09T06:07:01.110Z,3.83
2023-05-09T06:09:27.833Z,1.50
2023-05-09T06:11:54.663Z,3.80
2023-05-09T06:14:21.552Z,6.57
2023-05-09T06:16:50.445Z,1.50
2023-05-09T06:19:19.122Z,2.78
2023-05-09T06:21:47.194Z,2.25
2023-05-09T06:24:23.358Z,2.80
2023-05-09T06:26:58.822Z,2.75
2023-05-09T06:29:25.538Z,1.83
2023-05-09T06:31:52.378Z,1.77
2023-05-09T06:34:19.349Z,1.10
2023-05-09T06:36:47.484Z,1.30
2023-05-09T06:39:14.192Z,2.97
2023-05-09T06:41:41.193Z,2.13
2023-05-09T06:44:07.961Z,1.27
2023-05-09T06:46:34.665Z,1.77
2023-05-09T06:49:01.361Z,1.60
2023-05-09T06:51:28.091Z,1.40
2023-05-09T06:53:56.270Z,1.50
2023-05-09T06:56:23.005Z,3.22
2023-05-09T06:58:49.718Z,2.20
2023-05-09T07:01:16.464Z,2.00
2023-05-09T07:03:43.207Z,1.65
2023-05-09T07:06:09.892Z,1.27
2023-05-09T07:08:36.598Z,1.52
2023-05-09T07:11:05.001Z,1.83
2023-05-09T07:13:31.882Z,1.95
2023-05-09T07:15:58.653Z,1.23
2023-05-09T07:18:25.461Z,1.60
2023-05-09T07:20:52.226Z,2.35
2023-05-09T07:23:18.946Z,2.17
2023-05-09T07:25:45.666Z,3.17
2023-05-09T07:28:14.217Z,1.70
2023-05-09T07:30:40.937Z,2.05
2023-05-09T07:33:07.836Z,1.25
2023-05-09T07:35:34.728Z,1.50
2023-05-09T07:38:01.419Z,1.30
2023-05-09T07:40:28.254Z,1.58
2023-05-09T07:42:54.938Z,1.55
2023-05-09T07:45:24.017Z,2.03
2023-05-09T07:47:51.012Z,2.35
2023-05-09T07:50:17.935Z,2.05
2023-05-09T07:52:44.796Z,1.23
2023-05-09T07:55:11.582Z,2.10
2023-05-09T07:57:38.356Z,1.65
2023-05-09T08:00:06.244Z,0.90
2023-05-09T08:02:34.620Z,4.80
2023-05-09T08:05:01.441Z,4.28
2023-05-09T08:07:28.172Z,1.85
2023-05-09T08:09:54.910Z,2.15
2023-05-09T08:12:21.635Z,1.23
2023-05-09T08:14:48.720Z,1.20
2023-05-09T08:17:15.483Z,1.63
2023-05-09T08:19:43.562Z,1.33
2023-05-09T08:22:16.049Z,1.40
2023-05-09T08:24:42.786Z,8.52
2023-05-09T08:27:09.469Z,1.27
2023-05-09T08:29:36.253Z,1.60
2023-05-09T08:32:03.129Z,3.05
2023-05-09T08:34:29.814Z,1.10
2023-05-09T08:36:57.998Z,1.10
2023-05-09T08:39:24.713Z,0.93
2023-05-09T08:41:51.409Z,4.85
2023-05-09T08:44:18.309Z,0.80
2023-05-09T08:46:45.110Z,1.13
2023-05-09T08:49:11.975Z,1.58
2023-05-09T08:51:38.787Z,1.33
2023-05-09T08:54:06.964Z,1.10
2023-05-09T08:56:34.205Z,0.73
2023-05-09T08:59:00.967Z,7.70
2023-05-09T09:01:27.778Z,1.70
2023-05-09T09:03:54.773Z,1.23
2023-05-09T09:06:21.823Z,0.95
2023-05-09T09:08:48.537Z,1.95
2023-05-09T09:11:16.603Z,1.52
2023-05-09T09:13:43.351Z,1.13
2023-05-09T09:16:10.642Z,2.92
2023-05-09T09:18:39.475Z,1.05
2023-05-09T09:21:07.368Z,1.48
2023-05-09T09:23:34.104Z,2.42
2023-05-09T09:26:02.111Z,2.15
2023-05-09T09:28:30.367Z,0.85
2023-05-09T09:30:57.080Z,5.55
2023-05-09T09:33:24.472Z,0.60
2023-05-09T09:35:51.623Z,0.90
2023-05-09T09:38:18.406Z,0.63
2023-05-09T09:40:54.618Z,1.25
2023-05-09T09:43:26.653Z,1.98
2023-05-09T09:45:54.925Z,2.00
2023-05-09T09:48:24.318Z,1.42
2023-05-09T09:50:51.050Z,13.30
2023-05-09T09:53:19.771Z,7.15
2023-05-09T09:55:49.676Z,1.33
2023-05-09T09:58:16.727Z,0.70
2023-05-09T10:00:43.578Z,1.50
2023-05-09T10:03:16.489Z,2.42
2023-05-09T10:05:43.414Z,1.92
2023-05-09T10:08:10.158Z,0.60
2023-05-09T10:10:37.102Z,0.95
2023-05-09T10:13:05.328Z,0.80
2023-05-09T10:15:41.414Z,1.42
2023-05-09T10:18:17.997Z,0.55
2023-05-09T10:20:44.765Z,1.85
2023-05-09T10:23:11.436Z,0.95
2023-05-09T10:25:38.956Z,6.93
2023-05-09T10:28:06.549Z,0.60
2023-05-09T10:30:35.558Z,1.40
2023-05-09T10:33:04.543Z,0.70
2023-05-09T10:35:33.684Z,0.47
2023-05-09T10:38:00.384Z,1.95
2023-05-09T10:40:27.692Z,0.70
2023-05-09T10:42:54.342Z,0.85
2023-05-09T10:45:21.324Z,1.75
2023-05-09T10:47:48.949Z,1.30
2023-05-09T10:50:15.899Z,2.63
2023-05-09T10:53:05.874Z,2.13
2023-05-09T10:55:39.141Z,0.95
2023-05-09T10:58:29.836Z,8.15
2023-05-09T11:00:57.481Z,0.75
2023-05-09T11:03:24.447Z,1.13
2023-05-09T11:05:52.065Z,2.15
2023-05-09T11:08:21.524Z,1.25
2023-05-09T11:10:48.250Z,5.05
2023-05-09T11:13:18.506Z,0.80
2023-05-09T11:16:04.305Z,1.17
2023-05-09T11:18:31.202Z,1.08
2023-05-09T11:20:57.882Z,2.53
2023-05-09T11:23:27.104Z,0.90
2023-05-09T11:25:53.925Z,0.93
2023-05-09T11:28:26.989Z,4.10
2023-05-09T11:30:54.896Z,6.85
2023-05-09T11:33:22.400Z,0.95
2023-05-09T11:35:49.106Z,4.80
2023-05-09T11:38:20.527Z,1.20
2023-05-09T11:40:48.613Z,0.90
2023-05-09T11:43:15.269Z,1.75
2023-05-09T11:45:42.018Z,0.90
2023-05-09T11:48:08.927Z,2.63
2023-05-09T11:50:35.779Z,0.90
2023-05-09T11:53:02.905Z,1.92
2023-05-09T11:55:29.609Z,3.22
2023-05-09T11:57:58.620Z,4.05
2023-05-09T12:00:25.754Z,1.42
2023-05-09T12:02:52.690Z,0.73
2023-05-09T12:05:20.436Z,1.80
2023-05-09T12:07:47.286Z,0.77
2023-05-09T12:10:14.977Z,0.77
2023-05-09T12:12:45.556Z,0.90
2023-05-09T12:15:14.426Z,0.70
2023-05-09T12:17:42.067Z,2.75
2023-05-09T12:20:09.067Z,0.93
2023-05-09T12:22:35.914Z,2.15
2023-05-09T12:25:05.479Z,0.90
2023-05-09T12:27:32.181Z,0.80
2023-05-09T12:29:59.227Z,0.88
2023-05-09T12:32:27.325Z,1.15
2023-05-09T12:34:53.996Z,1.92
2023-05-09T12:37:20.701Z,2.35
2023-05-09T12:40:00.541Z,1.55
2023-05-09T12:42:27.431Z,1.20
2023-05-09T12:44:54.119Z,1.10
2023-05-09T12:47:20.783Z,3.60
2023-05-09T12:49:50.454Z,2.60
2023-05-09T12:52:17.471Z,0.98
2023-05-09T12:54:45.329Z,3.55
2023-05-09T12:57:20.892Z,2.33
2023-05-09T12:59:47.681Z,0.95
2023-05-09T13:02:14.498Z,1.63
2023-05-09T13:04:41.252Z,0.82
2023-05-09T13:07:09.689Z,0.55
2023-05-09T13:09:36.457Z,0.88
2023-05-09T13:12:03.292Z,1.65
2023-05-09T13:14:30.126Z,0.80
2023-05-09T13:16:56.875Z,1.70
2023-05-09T13:19:23.612Z,1.42
2023-05-09T13:21:50.317Z,0.82
2023-05-09T13:24:18.407Z,1.08
2023-05-09T13:26:45.233Z,3.08
2023-05-09T13:29:11.937Z,0.95
2023-05-09T13:31:38.701Z,1.75
2023-05-09T13:34:05.555Z,0.82
2023-05-09T13:36:32.224Z,0.90
2023-05-09T13:38:58.915Z,1.90
2023-05-09T13:41:27.296Z,2.72
2023-05-09T13:43:54.090Z,1.13
2023-05-09T13:46:20.892Z,1.75
2023-05-09T13:48:47.709Z,0.70
2023-05-09T13:51:14.457Z,2.20
2023-05-09T13:53:41.598Z,1.75
2023-05-09T13:56:08.580Z,0.77
2023-05-09T13:58:36.776Z,4.57
2023-05-09T14:01:05.266Z,0.70
2023-05-09T14:03:32.445Z,1.35
2023-05-09T14:05:59.202Z,5.57
2023-05-09T14:08:25.953Z,9.23
2023-05-09T14:10:52.713Z,1.63
2023-05-09T14:13:19.510Z,1.90
2023-05-09T14:15:47.682Z,1.60
2023-05-09T14:18:17.635Z,0.77
2023-05-09T14:20:45.336Z,1.60
2023-05-09T14:23:12.034Z,0.77
2023-05-09T14:25:38.743Z,3.28
2023-05-09T14:28:05.504Z,2.80
2023-05-09T14:30:32.250Z,1.02
2023-05-09T14:33:00.409Z,2.35
2023-05-09T14:35:27.100Z,0.80
2023-05-09T14:37:53.850Z,0.70
2023-05-09T14:40:20.784Z,1.60
2023-05-09T14:42:48.023Z,1.50
2023-05-09T14:45:14.716Z,1.75
2023-05-09T14:47:41.573Z,0.82
2023-05-09T14:50:10.338Z,0.80
2023-05-09T14:52:37.025Z,1.08
2023-05-09T14:55:04.059Z,3.38
2023-05-09T14:57:30.742Z,1.10
2023-05-09T15:00:00.894Z,1.25
2023-05-09T15:02:32.622Z,1.23
2023-05-09T15:04:59.345Z,0.70
2023-05-09T15:07:27.525Z,2.25
2023-05-09T15:09:54.330Z,1.33
2023-05-09T15:12:21.043Z,1.65
2023-05-09T15:14:47.724Z,0.73
2023-05-09T15:17:14.487Z,2.25
2023-05-09T15:19:41.184Z,1.10
2023-05-09T15:22:08.061Z,0.93
2023-05-09T15:24:36.171Z,1.00
2023-05-09T15:27:02.962Z,0.80
2023-05-09T15:29:29.623Z,1.98
2023-05-09T15:31:56.363Z,0.80
2023-05-09T15:34:23.051Z,0.70
2023-05-09T15:36:49.850Z,1.05
2023-05-09T15:39:16.594Z,0.60
2023-05-09T15:41:44.691Z,2.38
2023-05-09T15:44:11.369Z,1.30
2023-05-09T15:46:38.170Z,0.90
2023-05-09T15:49:04.867Z,1.50
2023-05-09T15:51:31.582Z,1.83
2023-05-09T15:53:58.297Z,2.17
2023-05-09T15:56:24.972Z,2.53
2023-05-09T15:58:53.076Z,0.82
2023-05-09T16:01:19.850Z,0.95
2023-05-09T16:03:46.634Z,1.80
2023-05-09T16:06:13.421Z,1.55
2023-05-09T16:08:40.141Z,2.63
2023-05-09T16:11:06.854Z,0.98
2023-05-09T16:13:35.714Z,1.35
2023-05-09T16:16:05.157Z,0.80
2023-05-09T16:18:31.925Z,1.20
2023-05-09T16:20:58.587Z,1.15
2023-05-09T16:23:25.349Z,0.80
2023-05-09T16:25:52.056Z,1.92
2023-05-09T16:28:18.752Z,0.82
2023-05-09T16:30:45.491Z,2.08
2023-05-09T16:33:13.539Z,1.40
2023-05-09T16:35:40.235Z,0.90
2023-05-09T16:38:06.984Z,2.00
2023-05-09T16:40:33.649Z,1.02
2023-05-09T16:43:00.352Z,1.02
2023-05-09T16:45:27.206Z,0.90
2023-05-09T16:47:53.956Z,1.85
2023-05-09T16:50:22.127Z,1.25
2023-05-09T16:52:48.882Z,1.30
2023-05-09T16:55:15.836Z,7.82
2023-05-09T16:57:42.525Z,1.08
2023-05-09T17:00:10.016Z,1.33
2023-05-09T17:02:36.757Z,1.65
2023-05-09T17:05:03.625Z,1.48
2023-05-09T17:07:31.746Z,1.90
2023-05-09T17:09:58.584Z,2.47
2023-05-09T17:12:25.351Z,3.78
2023-05-09T17:14:52.091Z,5.88
2023-05-09T17:17:18.839Z,1.70
2023-05-09T17:19:45.584Z,2.00
2023-05-09T17:22:12.352Z,1.75
2023-05-09T17:24:40.396Z,2.53
2023-05-09T17:27:07.141Z,1.25
2023-05-09T17:29:33.832Z,1.15
2023-05-09T17:32:00.888Z,5.18
2023-05-09T17:34:27.808Z,2.20
2023-05-09T17:36:54.550Z,1.42
2023-05-09T17:39:21.220Z,2.83
2023-05-09T17:41:49.286Z,3.90
2023-05-09T17:44:16.105Z,19.40
2023-05-09T17:46:42.885Z,4.68
2023-05-09T17:49:09.685Z,4.97
2023-05-09T17:51:36.562Z,2.58
2023-05-09T17:54:03.482Z,1.88
2023-05-09T17:56:30.296Z,1.90
2023-05-09T17:58:59.203Z,3.90
2023-05-09T18:01:26.014Z,4.93
2023-05-09T18:03:52.968Z,2.58
2023-05-09T18:06:19.879Z,1.92
2023-05-09T18:08:47.047Z,3.40
2023-05-09T18:11:13.730Z,3.33
2023-05-09T18:13:40.486Z,7.15
2023-05-09T18:16:11.529Z,3.05
2023-05-09T18:18:38.417Z,4.18
2023-05-09T18:21:05.351Z,1.75
2023-05-09T18:23:32.172Z,2.38
2023-05-09T18:25:59.030Z,2.85
2023-05-09T18:28:25.955Z,3.58
2023-05-09T18:30:53.163Z,4.03
2023-05-09T18:33:22.362Z,3.55
2023-05-09T18:35:49.224Z,2.40
2023-05-09T18:38:16.016Z,9.95
2023-05-09T18:40:42.767Z,9.77
2023-05-09T18:43:09.726Z,7.45
2023-05-09T18:45:36.517Z,11.63
2023-05-09T18:48:03.594Z,5.55
2023-05-09T18:50:31.819Z,7.20
2023-05-09T18:52:58.601Z,12.75
2023-05-09T18:55:25.380Z,6.63
2023-05-09T18:57:52.150Z,4.53
2023-05-09T19:00:18.992Z,5.38
2023-05-09T19:02:45.770Z,3.00
2023-05-09T19:05:12.550Z,3.13
2023-05-09T19:07:40.593Z,3.08
2023-05-09T19:10:07.983Z,4.47
2023-05-09T19:12:34.712Z,1.88
2023-05-09T19:15:01.457Z,3.15
2023-05-09T19:17:28.204Z,2.10
2023-05-09T19:19:54.938Z,3.35
2023-05-09T19:22:21.621Z,2.17
2023-05-09T19:24:49.641Z,4.03
2023-05-09T19:27:16.359Z,3.22
2023-05-09T19:29:43.007Z,4.20
2023-05-09T19:32:09.721Z,6.32
2023-05-09T19:34:36.559Z,9.02
2023-05-09T19:37:03.356Z,11.20
2023-05-09T19:39:30.053Z,7.63
2023-05-09T19:42:00.310Z,3.90
2023-05-09T19:44:27.501Z,4.60
2023-05-09T19:46:54.365Z,1.98
2023-05-09T19:49:21.181Z,4.22
2023-05-09T19:51:47.927Z,2.38
2023-05-09T19:54:14.598Z,4.97
2023-05-09T19:56:41.278Z,3.55
2023-05-09T19:59:09.397Z,1.40
2023-05-09T20:01:36.126Z,4.85
2023-05-09T20:04:02.941Z,2.60
2023-05-09T20:06:29.642Z,1.85
2023-05-09T20:08:56.276Z,2.38
2023-05-09T20:11:22.954Z,4.18
2023-05-09T20:13:49.601Z,3.03
2023-05-09T20:16:17.799Z,3.13
2023-05-09T20:18:44.578Z,5.57
2023-05-09T20:21:11.226Z,7.40
2023-05-09T20:23:37.993Z,6.78
2023-05-09T20:26:04.694Z,6.60
2023-05-09T20:28:31.635Z,7.28
2023-05-09T20:30:58.338Z,7.50
2023-05-09T20:33:26.420Z,4.00
2023-05-09T20:35:53.101Z,4.78
2023-05-09T20:38:19.753Z,6.13
2023-05-09T20:40:46.807Z,4.20
2023-05-09T20:43:13.489Z,4.72
2023-05-09T20:45:40.158Z,4.72
2023-05-09T20:48:06.933Z,3.58
2023-05-09T20:50:35.018Z,3.10
2023-05-09T20:53:01.659Z,4.68
2023-05-09T20:55:28.516Z,3.85
2023-05-09T20:57:55.174Z,3.03
2023-05-09T21:00:21.868Z,4.22
2023-05-09T21:02:48.708Z,3.65
2023-05-09T21:05:15.606Z,2.60
2023-05-09T21:07:43.665Z,1.92
2023-05-09T21:10:10.710Z,1.75
2023-05-09T21:12:37.430Z,3.28
2023-05-09T21:15:04.862Z,4.10
2023-05-09T21:17:31.610Z,5.07
2023-05-09T21:19:58.351Z,2.88
2023-05-09T21:22:25.075Z,2.92
2023-05-09T21:24:53.137Z,3.80
2023-05-09T21:27:19.815Z,3.33
2023-05-09T21:29:46.467Z,2.78
2023-05-09T21:32:13.200Z,3.60
2023-05-09T21:34:39.855Z,3.78
2023-05-09T21:37:06.512Z,5.93
2023-05-09T21:39:33.540Z,9.05
2023-05-09T21:42:01.672Z,56.75
2023-05-09T21:44:28.414Z,73.95
2023-05-09T21:46:55.232Z,21.50
2023-05-09T21:49:21.982Z,5.35
2023-05-09T21:51:51.628Z,3.58
2023-05-09T21:54:18.355Z,2.97
2023-05-09T21:56:45.015Z,3.05
2023-05-09T21:59:13.130Z,1.98
2023-05-09T22:01:39.988Z,3.75
2023-05-09T22:04:06.759Z,2.42
2023-05-09T22:06:33.524Z,2.30
2023-05-09T22:09:00.280Z,1.83
2023-05-09T22:11:26.992Z,1.70
2023-05-09T22:13:53.720Z,2.25
2023-05-09T22:16:21.841Z,2.03
2023-05-09T22:18:48.593Z,1.85
2023-05-09T22:21:15.305Z,1.98
2023-05-09T22:23:42.013Z,2.22
2023-05-09T22:26:08.780Z,1.92
2023-05-09T22:28:35.449Z,1.70
2023-05-09T22:31:02.140Z,1.83
2023-05-09T22:33:30.241Z,2.22
2023-05-09T22:35:56.963Z,1.98
2023-05-09T22:38:23.681Z,2.15
2023-05-09T22:40:50.354Z,3.50
2023-05-09T22:43:17.035Z,2.75
2023-05-09T22:45:43.778Z,4.50
2023-05-09T22:48:10.574Z,2.58
2023-05-09T22:50:38.726Z,2.95
2023-05-09T22:53:05.482Z,2.35
2023-05-09T22:55:32.190Z,2.47
2023-05-09T22:57:58.955Z,2.67
2023-05-09T23:00:25.694Z,2.08
2023-05-09T23:02:52.629Z,2.40
2023-05-09T23:05:19.501Z,2.25
2023-05-09T23:07:48.287Z,2.47
2023-05-09T23:10:15.322Z,2.85
2023-05-09T23:12:42.240Z,2.95
2023-05-09T23:15:09.635Z,3.83
2023-05-09T23:17:36.419Z,3.83
2023-05-09T23:20:03.448Z,2.60
2023-05-09T23:22:30.147Z,4.28
2023-05-09T23:24:58.289Z,3.67
2023-05-09T23:27:25.084Z,3.47
2023-05-09T23:29:51.806Z,4.90
2023-05-09T23:32:18.689Z,3.25
2023-05-09T23:34:45.441Z,3.20
2023-05-09T23:37:12.224Z,4.65
2023-05-09T23:39:38.888Z,4.22
2023-05-09T23:42:07.020Z,3.70
2023-05-09T23:44:33.850Z,5.18
2023-05-09T23:47:00.600Z,3.88
2023-05-09T23:49:27.311Z,6.53
2023-05-09T23:51:54.037Z,3.80
2023-05-09T23:54:20.758Z,5.50
2023-05-09T23:56:47.834Z,5.00
2023-05-09T23:59:15.956Z,5.20
